Time;durP1;ratioP1;P1;durP2;ratioP2;P2;SDS_P1;SDS_P2;PMS_P1;PMS_P2;Temp;Humidity;BMP_temperature;BMP_pressure;BME280_temperature;BME280_humidity;BME280_pressure;Samples;Min_cycle;Max_cycle;Signal;HPM_P1;HPM_P2
2022/04/27 00:01:06;;;;;;;7.07;1.95;;;6.70;99.90;;;;;;5042119;28;20397;-78
2022/04/27 00:03:32;;;;;;;6.63;2.78;;;6.70;99.90;;;;;;5040568;28;20030;-77
2022/04/27 00:05:58;;;;;;;6.28;2.55;;;6.70;99.90;;;;;;5041070;28;20022;-77
2022/04/27 00:08:24;;;;;;;6.80;2.03;;;6.60;99.90;;;;;;5040432;28;20049;-78
2022/04/27 00:10:49;;;;;;;4.10;2.20;;;6.60;99.90;;;;;;5041143;28;20068;-76
2022/04/27 00:13:16;;;;;;;11.27;3.22;;;6.50;99.90;;;;;;5041730;28;20033;-77
2022/04/27 00:15:41;;;;;;;10.27;3.65;;;6.50;99.90;;;;;;5040373;28;20029;-79
2022/04/27 00:18:07;;;;;;;3.90;2.30;;;6.50;99.90;;;;;;5040785;28;20044;-79
2022/04/27 00:20:33;;;;;;;9.88;3.00;;;6.50;99.90;;;;;;5040673;28;20037;-79
2022/04/27 00:22:58;;;;;;;11.00;2.63;;;6.40;99.90;;;;;;5040380;28;20218;-78
2022/04/27 00:25:24;;;;;;;5.68;2.88;;;6.40;99.90;;;;;;5041063;28;20028;-79
2022/04/27 00:27:49;;;;;;;4.47;2.70;;;6.40;99.90;;;;;;5042708;28;20033;-77
2022/04/27 00:30:15;;;;;;;4.70;2.47;;;6.40;99.90;;;;;;5043886;28;20025;-78
2022/04/27 00:32:41;;;;;;;6.65;3.13;;;6.50;99.90;;;;;;5044758;28;20081;-78
2022/04/27 00:35:08;;;;;;;5.80;2.72;;;6.40;99.90;;;;;;5053369;28;20061;-80
2022/04/27 00:37:34;;;;;;;8.73;3.95;;;6.40;99.90;;;;;;5046558;28;20079;-78
2022/04/27 00:40:00;;;;;;;8.27;2.70;;;6.40;99.90;;;;;;5045310;28;20440;-80
2022/04/27 00:42:26;;;;;;;8.48;3.33;;;6.40;99.90;;;;;;5045120;28;20055;-79
2022/04/27 00:44:52;;;;;;;6.35;3.15;;;6.40;99.90;;;;;;5044737;28;20036;-78
2022/04/27 00:47:18;;;;;;;5.85;2.75;;;6.30;99.90;;;;;;5045087;28;20032;-76
2022/04/27 00:49:54;;;;;;;4.60;2.55;;;6.30;99.90;;;;;;5045189;28;20033;-78
2022/04/27 00:52:22;;;;;;;6.28;3.00;;;6.30;99.90;;;;;;5042931;28;20044;-78
2022/04/27 00:54:50;;;;;;;6.30;2.63;;;6.20;99.90;;;;;;5044939;28;20013;-78
2022/04/27 00:57:16;;;;;;;7.03;3.00;;;6.20;99.90;;;;;;5043524;28;20048;-78
2022/04/27 00:59:42;;;;;;;8.13;2.92;;;6.20;99.90;;;;;;5044194;28;20127;-80
2022/04/27 01:02:08;;;;;;;4.90;2.53;;;6.20;99.90;;;;;;5044085;28;20479;-79
2022/04/27 01:04:36;;;;;;;4.32;2.47;;;6.20;99.90;;;;;;5044551;28;20017;-78
2022/04/27 01:07:03;;;;;;;6.90;3.58;;;6.20;99.90;;;;;;5044439;28;20029;-78
2022/04/27 01:09:30;;;;;;;3.13;2.17;;;6.20;99.90;;;;;;5044143;28;20053;-79
2022/04/27 01:12:01;;;;;;;8.07;3.05;;;6.20;99.90;;;;;;5044451;28;20026;-79
2022/04/27 01:14:26;;;;;;;6.10;3.35;;;6.10;99.90;;;;;;5044440;28;20033;-79
2022/04/27 01:16:56;;;;;;;9.38;3.05;;;6.10;99.90;;;;;;5043538;28;20382;-80
2022/04/27 01:19:24;;;;;;;9.88;2.95;;;6.10;99.90;;;;;;5042372;28;20053;-78
2022/04/27 01:21:50;;;;;;;6.00;2.85;;;6.10;99.90;;;;;;5044056;28;20037;-79
2022/04/27 01:24:20;;;;;;;11.50;3.97;;;6.00;99.90;;;;;;5043018;28;20061;-79
2022/04/27 01:26:49;;;;;;;11.02;3.20;;;6.00;99.90;;;;;;5050824;28;20029;-79
2022/04/27 01:29:16;;;;;;;7.13;2.70;;;6.00;99.90;;;;;;5043498;28;20033;-79
2022/04/27 01:31:43;;;;;;;7.78;4.10;;;5.90;99.90;;;;;;5044172;28;20029;-79
2022/04/27 01:34:09;;;;;;;6.22;2.58;;;5.90;99.90;;;;;;5043836;28;20013;-77
2022/04/27 01:36:36;;;;;;;6.70;2.80;;;5.80;99.90;;;;;;5044092;28;20052;-78
2022/04/27 01:39:02;;;;;;;5.43;2.58;;;5.80;99.90;;;;;;5041688;28;20048;-78
2022/04/27 01:41:28;;;;;;;4.75;2.95;;;5.80;99.90;;;;;;5042321;28;20048;-77
2022/04/27 01:43:53;;;;;;;8.40;3.10;;;5.70;99.90;;;;;;5043171;28;20021;-79
2022/04/27 01:46:19;;;;;;;4.30;2.53;;;5.80;99.90;;;;;;5041021;28;20521;-78
2022/04/27 01:48:45;;;;;;;6.07;3.15;;;5.70;99.90;;;;;;5043691;28;20044;-79
2022/04/27 01:51:11;;;;;;;5.03;3.15;;;5.70;99.90;;;;;;5050659;28;20498;-78
2022/04/27 01:56:21;;;;;;;13.40;2.88;;;5.70;99.90;;;;;;5043679;28;20174;-79
2022/04/27 01:58:47;;;;;;;6.60;3.22;;;5.60;99.90;;;;;;5043622;28;20493;-78
2022/04/27 02:01:13;;;;;;;6.88;3.40;;;5.60;99.90;;;;;;5049494;28;20093;-79
2022/04/27 02:03:40;;;;;;;7.53;3.50;;;5.50;99.90;;;;;;5043485;28;20036;-80
2022/04/27 02:06:06;;;;;;;6.30;3.35;;;5.50;99.90;;;;;;5043768;28;20041;-79
2022/04/27 02:08:33;;;;;;;9.15;3.80;;;5.50;99.90;;;;;;5043313;28;20029;-79
2022/04/27 02:10:58;;;;;;;7.68;3.33;;;5.40;99.90;;;;;;5042940;28;20052;-79
2022/04/27 02:13:26;;;;;;;8.80;3.05;;;5.40;99.90;;;;;;5043511;28;20034;-78
2022/04/27 02:15:52;;;;;;;9.93;3.97;;;5.40;99.90;;;;;;5043031;28;20081;-80
2022/04/27 02:18:19;;;;;;;6.45;3.35;;;5.40;99.90;;;;;;5049746;28;20041;-80
2022/04/27 02:20:45;;;;;;;6.28;2.88;;;5.30;99.90;;;;;;5043226;28;20028;-79
2022/04/27 02:23:12;;;;;;;8.20;3.75;;;5.30;99.90;;;;;;5043135;28;20049;-80
2022/04/27 02:25:37;;;;;;;7.32;3.22;;;5.30;99.90;;;;;;5041666;28;20021;-77
2022/04/27 02:28:05;;;;;;;8.70;3.92;;;5.30;99.90;;;;;;5042800;28;20036;-77
2022/04/27 02:30:32;;;;;;;9.32;3.42;;;5.20;99.90;;;;;;5050410;28;21092;-75
2022/04/27 02:32:58;;;;;;;9.80;3.63;;;5.20;99.90;;;;;;5043123;28;20120;-77
2022/04/27 02:35:24;;;;;;;10.52;4.13;;;5.20;99.90;;;;;;5042758;28;20029;-78
2022/04/27 02:37:49;;;;;;;6.43;3.60;;;5.20;99.90;;;;;;5041355;28;20041;-77
2022/04/27 02:40:15;;;;;;;8.48;3.90;;;5.10;99.90;;;;;;5049347;28;20030;-78
2022/04/27 02:42:41;;;;;;;9.48;3.72;;;5.20;99.90;;;;;;5041135;28;20022;-78
2022/04/27 02:45:06;;;;;;;5.78;3.38;;;5.10;99.90;;;;;;5048522;28;20037;-77
2022/04/27 02:47:32;;;;;;;9.68;4.10;;;5.10;99.90;;;;;;5042561;28;20048;-77
2022/04/27 02:52:42;;;;;;;6.55;3.72;;;5.00;99.90;;;;;;5041710;28;21496;-78
2022/04/27 02:55:08;;;;;;;10.98;4.70;;;5.10;99.90;;;;;;5042664;28;20025;-77
2022/04/27 02:57:34;;;;;;;9.07;3.45;;;5.10;99.90;;;;;;5038997;28;20034;-78
2022/04/27 03:00:00;;;;;;;8.68;3.95;;;5.10;99.90;;;;;;5049969;28;20033;-79
2022/04/27 03:02:26;;;;;;;7.97;3.65;;;5.10;99.90;;;;;;5042341;28;20026;-80
2022/04/27 03:04:51;;;;;;;7.03;3.13;;;5.00;99.90;;;;;;5042332;28;20182;-80
2022/04/27 03:07:17;;;;;;;11.63;4.13;;;5.10;99.90;;;;;;5041814;28;20017;-79
2022/04/27 03:09:43;;;;;;;9.75;3.97;;;5.10;99.90;;;;;;5042001;28;20049;-78
2022/04/27 03:12:09;;;;;;;11.98;3.95;;;5.00;99.90;;;;;;5042497;28;20025;-78
2022/04/27 03:14:34;;;;;;;10.18;4.35;;;5.00;99.90;;;;;;5049522;28;20097;-78
2022/04/27 03:17:00;;;;;;;6.90;4.07;;;5.00;99.90;;;;;;5042517;28;20036;-77
2022/04/27 03:19:25;;;;;;;8.88;4.40;;;5.00;99.90;;;;;;5041838;28;20024;-78
2022/04/27 03:21:51;;;;;;;13.02;4.95;;;5.00;99.90;;;;;;5047941;28;20026;-78
2022/04/27 03:24:17;;;;;;;11.75;3.78;;;5.00;99.90;;;;;;5042291;28;20102;-79
2022/04/27 03:26:43;;;;;;;8.60;3.75;;;5.00;99.90;;;;;;5040621;28;20029;-76
2022/04/27 03:29:08;;;;;;;10.32;4.68;;;5.00;99.90;;;;;;5040526;28;20022;-78
2022/04/27 03:31:35;;;;;;;6.35;3.80;;;5.00;99.90;;;;;;5041047;28;20028;-77
2022/04/27 03:34:00;;;;;;;10.48;4.70;;;4.90;99.90;;;;;;5040594;28;20083;-77
2022/04/27 03:36:26;;;;;;;9.80;4.68;;;5.00;99.90;;;;;;5040720;28;20027;-79
2022/04/27 03:38:52;;;;;;;7.30;4.53;;;5.00;99.90;;;;;;5049349;28;20933;-78
2022/04/27 03:41:28;;;;;;;16.48;5.60;;;5.00;99.90;;;;;;5042254;28;20116;-78
2022/04/27 03:43:54;;;;;;;10.55;4.90;;;5.00;99.90;;;;;;5041740;28;20029;-79
2022/04/27 03:46:19;;;;;;;7.88;4.60;;;4.90;99.90;;;;;;5042169;28;20025;-78
2022/04/27 03:48:46;;;;;;;10.90;5.10;;;5.00;99.90;;;;;;5048504;28;20022;-77
2022/04/27 03:51:12;;;;;;;9.57;4.47;;;5.00;99.90;;;;;;5041458;28;20394;-78
2022/04/27 03:53:38;;;;;;;11.35;4.82;;;5.00;99.90;;;;;;5041821;28;20024;-78
2022/04/27 03:56:12;;;;;;;14.07;4.63;;;5.10;99.90;;;;;;5041821;28;20072;-79
2022/04/27 03:58:37;;;;;;;12.32;5.03;;;5.10;99.90;;;;;;5041925;28;20087;-75
2022/04/27 04:01:03;;;;;;;9.68;4.70;;;5.20;99.90;;;;;;5042229;28;20433;-76
2022/04/27 04:03:28;;;;;;;20.23;5.65;;;5.20;99.90;;;;;;5051359;28;20135;-74
2022/04/27 04:05:54;;;;;;;11.82;5.35;;;5.10;99.90;;;;;;5045873;28;20025;-74
2022/04/27 04:08:20;;;;;;;9.30;4.60;;;5.20;99.90;;;;;;5045293;28;20079;-75
2022/04/27 04:10:46;;;;;;;7.43;4.47;;;5.10;99.90;;;;;;5045016;28;20046;-74
2022/04/27 04:13:12;;;;;;;10.98;5.07;;;5.20;99.90;;;;;;5045431;28;20021;-75
2022/04/27 04:15:38;;;;;;;13.05;5.38;;;5.10;99.90;;;;;;5045390;28;20037;-75
2022/04/27 04:18:05;;;;;;;12.52;4.95;;;5.10;99.90;;;;;;5043992;28;20041;-74
2022/04/27 04:20:31;;;;;;;12.30;4.38;;;5.10;99.90;;;;;;5045995;28;20034;-74
2022/04/27 04:22:57;;;;;;;11.65;4.93;;;5.20;99.90;;;;;;5044578;28;20030;-74
2022/04/27 04:30:51;;;;;;;17.10;5.45;;;5.20;99.90;;;;;;5044978;28;19955;-74
2022/04/27 04:33:16;;;;;;;11.60;4.95;;;5.10;99.90;;;;;;5044769;28;20033;-74
2022/04/27 04:35:42;;;;;;;12.27;5.65;;;5.20;99.90;;;;;;5044958;28;20017;-74
2022/04/27 04:38:07;;;;;;;13.10;4.95;;;5.20;99.90;;;;;;5051907;28;20188;-74
2022/04/27 04:40:33;;;;;;;9.43;4.53;;;5.30;99.90;;;;;;5039944;28;20038;-74
2022/04/27 04:42:59;;;;;;;10.45;4.55;;;5.30;99.90;;;;;;5051516;28;20029;-74
2022/04/27 04:45:25;;;;;;;16.83;5.03;;;5.30;99.90;;;;;;5038186;28;20024;-74
2022/04/27 04:47:51;;;;;;;10.40;4.53;;;5.30;99.90;;;;;;5044743;28;20034;-74
2022/04/27 04:50:17;;;;;;;8.27;4.30;;;5.30;99.90;;;;;;5041052;28;20030;-73
2022/04/27 04:52:44;;;;;;;11.23;4.85;;;5.30;99.90;;;;;;5044492;28;20053;-72
2022/04/27 04:55:10;;;;;;;9.27;4.57;;;5.40;99.90;;;;;;5053699;28;20690;-73
2022/04/27 04:57:40;;;;;;;12.00;5.63;;;5.50;99.90;;;;;;5042601;28;20051;-74
2022/04/27 05:00:09;;;;;;;10.00;4.65;;;5.40;99.90;;;;;;5044183;28;20034;-73
2022/04/27 05:02:36;;;;;;;11.50;4.70;;;5.50;99.90;;;;;;5044580;28;20453;-74
2022/04/27 05:05:04;;;;;;;16.40;5.53;;;5.50;99.90;;;;;;5044669;28;20037;-74
2022/04/27 05:07:30;;;;;;;12.35;5.63;;;5.50;99.90;;;;;;5051198;28;20057;-74
2022/04/27 05:09:56;;;;;;;13.70;5.82;;;5.60;99.90;;;;;;5042961;28;20080;-73
2022/04/27 05:12:23;;;;;;;13.27;4.05;;;5.60;99.90;;;;;;5043882;28;20116;-74
2022/04/27 05:14:49;;;;;;;14.52;5.95;;;5.70;99.90;;;;;;5041238;28;20017;-75
2022/04/27 05:17:15;;;;;;;8.35;4.78;;;5.80;99.90;;;;;;5041118;28;20033;-74
2022/04/27 05:19:40;;;;;;;14.73;5.25;;;5.90;99.90;;;;;;5053288;28;20022;-76
2022/04/27 05:22:07;;;;;;;11.15;5.30;;;5.90;99.90;;;;;;5044126;28;20026;-74
2022/04/27 05:24:34;;;;;;;11.98;4.47;;;6.00;99.90;;;;;;5044538;28;20049;-75
2022/04/27 05:26:59;;;;;;;12.68;5.60;;;6.00;99.90;;;;;;5041817;28;20037;-75
2022/04/27 05:32:10;;;;;;;19.85;5.00;;;6.20;99.90;;;;;;5041770;28;20106;-73
2022/04/27 05:34:36;;;;;;;8.68;4.13;;;6.20;99.90;;;;;;5041622;28;20048;-76
2022/04/27 05:37:03;;;;;;;10.25;4.85;;;6.30;99.90;;;;;;5050838;28;20018;-74
2022/04/27 05:39:29;;;;;;;12.30;4.82;;;6.40;99.90;;;;;;5044170;28;20049;-75
2022/04/27 05:41:54;;;;;;;11.98;5.43;;;6.50;99.90;;;;;;5040857;28;20033;-74
2022/04/27 05:44:22;;;;;;;13.52;4.45;;;6.50;99.90;;;;;;5041838;28;20045;-76
2022/04/27 05:46:52;;;;;;;12.20;4.40;;;6.60;99.90;;;;;;5040497;28;20501;-76
2022/04/27 05:49:19;;;;;;;8.98;4.32;;;6.70;99.90;;;;;;5042410;28;20485;-74
2022/04/27 05:51:44;;;;;;;9.95;4.88;;;6.80;99.90;;;;;;5042230;28;20017;-74
2022/04/27 05:54:11;;;;;;;8.15;3.83;;;6.90;99.90;;;;;;5043675;28;20052;-74
2022/04/27 05:56:37;;;;;;;18.85;4.50;;;6.90;99.90;;;;;;5050951;28;20026;-74
2022/04/27 05:59:03;;;;;;;9.27;4.72;;;7.00;99.90;;;;;;5043145;28;20064;-74
2022/04/27 06:01:29;;;;;;;9.05;4.13;;;7.10;99.90;;;;;;5043136;28;20029;-74
2022/04/27 06:03:56;;;;;;;6.72;3.75;;;7.10;99.90;;;;;;5043042;28;20033;-75
2022/04/27 06:06:22;;;;;;;6.80;3.85;;;7.20;99.90;;;;;;5042912;28;20029;-75
2022/04/27 06:08:48;;;;;;;9.32;4.22;;;7.30;99.90;;;;;;5041112;28;20021;-75
2022/04/27 06:11:16;;;;;;;6.07;3.10;;;7.40;99.90;;;;;;5042983;28;20033;-74
2022/04/27 06:13:42;;;;;;;18.00;4.30;;;7.40;99.90;;;;;;5043330;28;20013;-75
2022/04/27 06:16:08;;;;;;;13.95;3.38;;;7.50;99.90;;;;;;5042767;28;20144;-74
2022/04/27 06:18:33;;;;;;;8.48;3.50;;;7.60;99.90;;;;;;5042779;28;20040;-74
2022/04/27 06:20:59;;;;;;;9.90;3.88;;;7.70;99.90;;;;;;5043110;28;20060;-74
2022/04/27 06:23:25;;;;;;;6.05;3.08;;;7.80;99.90;;;;;;5042132;28;20025;-74
2022/04/27 06:25:50;;;;;;;10.07;3.17;;;7.90;99.90;;;;;;5042690;28;20037;-74
2022/04/27 06:28:17;;;;;;;4.07;2.13;;;8.00;99.90;;;;;;5039244;28;20029;-74
2022/04/27 06:30:42;;;;;;;8.00;3.40;;;8.10;99.90;;;;;;5041393;28;20044;-74
2022/04/27 06:33:08;;;;;;;20.45;3.08;;;8.10;99.90;;;;;;5043103;28;20037;-74
2022/04/27 06:35:34;;;;;;;7.22;2.72;;;8.20;99.90;;;;;;5042463;28;20030;-74
2022/04/27 06:38:00;;;;;;;5.18;3.20;;;8.30;99.90;;;;;;5043487;28;20057;-73
2022/04/27 06:40:26;;;;;;;9.30;3.72;;;8.30;99.90;;;;;;5040307;28;20520;-74
2022/04/27 06:42:53;;;;;;;6.78;2.88;;;8.30;99.90;;;;;;5041611;28;20029;-73
2022/04/27 06:45:19;;;;;;;6.10;2.38;;;8.40;99.90;;;;;;5050465;28;20097;-73
2022/04/27 06:47:44;;;;;;;7.32;2.97;;;8.40;99.90;;;;;;5042748;28;20033;-73
2022/04/27 06:50:13;;;;;;;5.88;2.75;;;8.50;99.90;;;;;;5042024;28;20029;-73
2022/04/27 06:52:43;;;;;;;5.18;2.63;;;8.60;99.90;;;;;;5041359;28;20049;-73
2022/04/27 06:55:10;;;;;;;8.35;3.17;;;8.60;99.90;;;;;;5056146;28;20033;-74
2022/04/27 06:57:37;;;;;;;6.07;3.20;;;8.80;99.90;;;;;;5051904;28;20694;-72
2022/04/27 07:00:04;;;;;;;9.30;2.28;;;8.80;99.90;;;;;;5041312;28;20056;-74
2022/04/27 07:02:30;;;;;;;4.63;1.95;;;8.80;99.90;;;;;;5039524;28;20580;-72
2022/04/27 07:05:00;;;;;;;3.03;1.52;;;8.90;99.90;;;;;;5041802;28;20025;-72
2022/04/27 07:07:29;;;;;;;5.53;1.77;;;9.00;99.90;;;;;;5039399;28;20045;-73
2022/04/27 07:09:56;;;;;;;6.97;2.63;;;9.10;99.90;;;;;;5041660;28;20053;-73
2022/04/27 07:12:22;;;;;;;11.52;2.30;;;9.30;99.90;;;;;;5040570;28;20324;-73
2022/04/27 07:14:48;;;;;;;2.78;1.58;;;9.40;99.90;;;;;;5040067;28;20030;-73
2022/04/27 07:17:14;;;;;;;5.70;1.38;;;9.60;99.90;;;;;;5040944;28;20493;-74
2022/04/27 07:19:39;;;;;;;2.70;1.55;;;9.80;99.90;;;;;;5042745;28;20123;-74
2022/04/27 07:22:06;;;;;;;7.40;2.05;;;9.80;99.90;;;;;;5041544;28;20041;-75
2022/04/27 07:24:32;;;;;;;5.13;1.85;;;10.00;99.90;;;;;;5048660;28;20497;-74
2022/04/27 07:26:58;;;;;;;4.45;1.70;;;10.20;99.90;;;;;;5041435;28;20033;-74
2022/04/27 07:29:24;;;;;;;5.47;2.08;;;10.20;99.90;;;;;;5041770;28;20033;-73
2022/04/27 07:31:50;;;;;;;2.42;1.65;;;10.10;99.90;;;;;;5042219;28;20037;-74
2022/04/27 07:34:16;;;;;;;3.03;1.73;;;10.00;99.90;;;;;;5042156;28;20036;-74
2022/04/27 07:36:42;;;;;;;6.25;1.83;;;10.00;99.90;;;;;;5040502;28;20033;-75
2022/04/27 07:39:07;;;;;;;1.52;1.13;;;10.10;99.90;;;;;;5045330;28;20091;-74
2022/04/27 07:41:34;;;;;;;5.05;1.27;;;10.30;99.90;;;;;;5053057;28;20446;-75
2022/04/27 07:44:00;;;;;;;3.42;1.65;;;10.40;99.90;;;;;;5046012;28;20030;-74
2022/04/27 07:46:26;;;;;;;5.18;1.45;;;10.60;99.90;;;;;;5044304;28;20467;-74
2022/04/27 07:48:51;;;;;;;3.47;2.03;;;10.90;99.90;;;;;;5044719;28;20033;-74
2022/04/27 07:51:18;;;;;;;6.85;2.15;;;11.00;99.90;;;;;;5046025;28;20025;-74
2022/04/27 07:53:43;;;;;;;14.30;2.42;;;11.00;99.90;;;;;;5045548;28;20026;-73
2022/04/27 07:56:10;;;;;;;2.33;1.85;;;11.00;99.90;;;;;;5043602;28;20056;-75
2022/04/27 07:58:36;;;;;;;3.83;1.52;;;10.80;99.90;;;;;;5045698;28;20033;-73
2022/04/27 08:01:05;;;;;;;1.83;1.30;;;10.70;99.90;;;;;;5043773;28;20544;-73
2022/04/27 08:03:30;;;;;;;2.53;1.55;;;10.60;99.90;;;;;;5044412;28;20036;-75
2022/04/27 08:05:56;;;;;;;2.38;1.30;;;10.50;99.90;;;;;;5045587;28;20037;-73
2022/04/27 08:08:26;;;;;;;5.38;2.05;;;10.40;99.90;;;;;;5052647;28;20590;-74
2022/04/27 08:10:52;;;;;;;3.35;1.52;;;10.40;99.90;;;;;;5045501;28;20049;-73
2022/04/27 08:13:17;;;;;;;6.30;1.85;;;10.40;99.90;;;;;;5045014;28;20028;-71
2022/04/27 08:15:44;;;;;;;4.22;1.75;;;10.40;99.90;;;;;;5044986;28;20587;-73
2022/04/27 08:18:10;;;;;;;7.20;2.03;;;10.40;99.90;;;;;;5044467;28;20052;-71
2022/04/27 08:23:31;;;;;;;2.63;1.58;;;10.40;99.90;;;;;;5045505;28;20067;-73
2022/04/27 08:26:05;;;;;;;3.88;1.65;;;10.50;99.90;;;;;;5048182;28;20024;-72
2022/04/27 08:28:31;;;;;;;3.40;2.00;;;10.70;99.90;;;;;;5060009;28;20034;-73
2022/04/27 08:30:58;;;;;;;3.45;1.52;;;11.00;99.90;;;;;;5044891;28;20021;-73
2022/04/27 08:33:23;;;;;;;4.32;1.65;;;11.30;99.90;;;;;;5044795;28;20021;-73
2022/04/27 08:35:49;;;;;;;3.13;1.73;;;11.50;99.90;;;;;;5045193;28;20091;-72
2022/04/27 08:38:15;;;;;;;2.53;1.50;;;11.70;99.90;;;;;;5043226;28;20064;-72
2022/04/27 08:40:43;;;;;;;2.45;1.85;;;11.90;99.90;;;;;;5043511;28;20040;-73
2022/04/27 08:43:10;;;;;;;3.15;1.58;;;12.10;99.90;;;;;;5044478;28;20052;-73
2022/04/27 08:45:37;;;;;;;3.50;1.80;;;12.10;99.90;;;;;;5043169;28;20049;-74
2022/04/27 08:48:05;;;;;;;3.00;1.65;;;12.00;99.90;;;;;;5044353;28;20031;-75
2022/04/27 08:50:31;;;;;;;3.45;1.67;;;12.00;99.90;;;;;;5043024;28;20026;-74
2022/04/27 08:52:56;;;;;;;4.20;2.17;;;11.90;99.90;;;;;;5044768;28;20026;-73
2022/04/27 08:55:23;;;;;;;16.05;1.70;;;11.80;99.90;;;;;;5044403;28;20025;-73
2022/04/27 08:57:49;;;;;;;4.05;1.75;;;11.80;99.90;;;;;;5052049;28;20041;-74
2022/04/27 09:00:17;;;;;;;3.55;1.77;;;11.80;99.90;;;;;;5051411;28;20056;-73
2022/04/27 09:02:44;;;;;;;14.40;1.80;;;11.80;99.90;;;;;;5043529;28;20390;-73
2022/04/27 09:05:12;;;;;;;3.00;1.90;;;11.90;99.90;;;;;;5044555;28;20028;-72
2022/04/27 09:07:50;;;;;;;2.70;1.58;;;12.00;99.90;;;;;;5044312;28;20071;-73
2022/04/27 09:10:22;;;;;;;4.43;2.35;;;12.10;99.90;;;;;;5042096;28;20109;-73
2022/04/27 09:12:49;;;;;;;3.70;1.85;;;12.20;99.90;;;;;;5043223;28;20017;-73
2022/04/27 09:15:17;;;;;;;2.38;1.50;;;12.40;99.90;;;;;;5040998;28;20059;-74
2022/04/27 09:23:38;;;;;;;2.78;1.70;;;12.70;99.90;;;;;;5043523;28;20390;-73
2022/04/27 09:26:15;;;;;;;3.78;1.73;;;12.80;99.90;;;;;;5042005;28;20389;-73
2022/04/27 09:28:45;;;;;;;2.30;1.40;;;13.00;99.90;;;;;;5043731;28;20025;-75
2022/04/27 09:31:10;;;;;;;2.05;1.20;;;13.10;99.90;;;;;;5043712;28;20030;-72
2022/04/27 09:33:38;;;;;;;3.30;1.88;;;13.10;99.90;;;;;;5043508;28;20033;-72
2022/04/27 09:36:23;;;;;;;4.40;1.73;;;12.90;99.90;;;;;;5043045;28;20030;-75
2022/04/27 09:38:53;;;;;;;5.88;2.00;;;13.00;99.90;;;;;;5040270;28;20037;-74
2022/04/27 09:41:42;;;;;;;3.83;1.95;;;13.20;99.90;;;;;;5044044;28;20024;-73
2022/04/27 09:44:30;;;;;;;6.18;1.48;;;13.50;99.90;;;;;;5044066;28;20032;-74
2022/04/27 09:46:57;;;;;;;2.90;1.70;;;13.60;99.90;;;;;;5043726;28;20029;-73
2022/04/27 09:49:23;;;;;;;4.15;1.88;;;13.50;99.90;;;;;;5043248;28;20035;-73
2022/04/27 09:51:54;;;;;;;4.43;1.73;;;13.50;99.90;;;;;;5042160;28;20032;-72
2022/04/27 09:54:25;;;;;;;3.35;1.70;;;13.80;99.90;;;;;;5044014;28;20026;-76
2022/04/27 09:56:54;;;;;;;8.40;2.10;;;14.00;99.90;;;;;;5043805;28;20029;-74
2022/04/27 09:59:30;;;;;;;6.10;1.92;;;14.30;99.90;;;;;;5043002;28;20037;-74
2022/04/27 10:02:04;;;;;;;2.55;1.27;;;14.40;99.90;;;;;;5042962;28;20025;-73
2022/04/27 10:04:29;;;;;;;3.60;1.98;;;14.40;99.90;;;;;;5043493;28;20091;-74
2022/04/27 10:07:00;;;;;;;2.53;1.83;;;14.70;99.90;;;;;;5043177;28;20072;-75
2022/04/27 10:09:28;;;;;;;2.60;1.77;;;15.00;99.90;;;;;;5042338;28;20049;-74
2022/04/27 10:11:58;;;;;;;3.00;1.80;;;15.20;99.90;;;;;;5043113;28;20017;-74
2022/04/27 10:14:25;;;;;;;4.18;1.77;;;15.40;99.90;;;;;;5042246;28;20055;-73
2022/04/27 10:16:52;;;;;;;3.28;2.13;;;15.60;99.90;;;;;;5043484;28;20013;-74
2022/04/27 10:19:18;;;;;;;5.15;1.77;;;15.90;99.90;;;;;;5043090;28;20029;-73
2022/04/27 10:21:59;;;;;;;2.10;1.40;;;16.20;99.90;;;;;;5042022;28;20424;-73
2022/04/27 10:24:41;;;;;;;2.63;1.50;;;15.70;99.90;;;;;;5043339;28;20046;-72
2022/04/27 10:27:34;;;;;;;3.38;1.40;;;15.20;99.90;;;;;;5042559;28;20495;-75
2022/04/27 10:30:00;;;;;;;8.27;1.77;;;14.70;99.90;;;;;;5042809;28;20026;-73
2022/04/27 10:32:36;;;;;;;3.42;1.38;;;14.40;99.90;;;;;;5043501;28;20111;-74
2022/04/27 10:35:19;;;;;;;3.90;1.15;;;14.20;99.90;;;;;;5049191;28;20111;-73
2022/04/27 10:37:58;;;;;;;2.40;1.47;;;14.00;99.90;;;;;;5042618;28;20033;-74
2022/04/27 10:40:43;;;;;;;4.05;2.03;;;13.90;99.90;;;;;;5041756;28;20029;-73
2022/04/27 10:43:13;;;;;;;9.10;1.42;;;14.00;99.90;;;;;;5039958;28;20046;-74
2022/04/27 10:45:44;;;;;;;4.38;1.80;;;14.00;99.90;;;;;;5042272;28;20053;-73
2022/04/27 10:48:24;;;;;;;5.55;1.83;;;14.20;99.90;;;;;;5042157;28;20104;-72
2022/04/27 10:51:03;;;;;;;2.47;1.77;;;14.50;99.90;;;;;;5041513;28;20025;-73
2022/04/27 10:53:39;;;;;;;3.67;1.88;;;14.50;99.90;;;;;;5042438;28;20053;-72
2022/04/27 10:56:23;;;;;;;5.07;1.83;;;14.40;99.90;;;;;;5041865;28;20030;-74
2022/04/27 10:58:49;;;;;;;2.10;1.13;;;14.20;99.90;;;;;;5043030;28;20105;-73
2022/04/27 11:01:18;;;;;;;3.70;1.60;;;14.00;99.90;;;;;;5042051;28;20037;-74
2022/04/27 11:03:52;;;;;;;6.10;2.47;;;14.00;99.90;;;;;;5040141;28;20045;-75
2022/04/27 11:06:19;;;;;;;;;;;14.20;99.90;;;;;;5041633;28;20073;-74
2022/04/27 11:09:12;;;;;;;4.82;1.63;;;14.20;99.90;;;;;;5041016;28;19936;-73
2022/04/27 11:11:53;;;;;;;2.17;1.65;;;14.40;99.90;;;;;;5042139;28;20069;-74
2022/04/27 11:14:28;;;;;;;1.80;1.25;;;15.00;99.90;;;;;;5040368;28;20033;-73
2022/04/27 11:16:53;;;;;;;3.20;1.60;;;15.60;99.90;;;;;;5040740;28;20021;-74
2022/04/27 11:19:19;;;;;;;1.38;1.13;;;16.00;99.90;;;;;;5037878;28;20048;-74
2022/04/27 11:21:46;;;;;;;7.55;1.75;;;15.90;99.90;;;;;;5041752;28;20041;-74
2022/04/27 11:24:14;;;;;;;6.28;1.63;;;15.60;99.90;;;;;;5041763;28;20063;-73
2022/04/27 11:26:46;;;;;;;3.05;1.60;;;15.40;99.90;;;;;;5040681;28;20044;-73
2022/04/27 11:29:14;;;;;;;4.13;1.65;;;14.90;99.90;;;;;;5040127;28;20057;-74
2022/04/27 11:31:42;;;;;;;5.45;1.77;;;14.80;99.90;;;;;;5040027;28;20021;-72
2022/04/27 11:34:25;;;;;;;5.43;1.67;;;14.90;99.90;;;;;;5040346;28;20028;-73
2022/04/27 11:36:52;;;;;;;3.38;1.58;;;14.90;99.90;;;;;;5041286;28;20034;-73
2022/04/27 11:39:25;;;;;;;2.15;1.00;;;14.70;99.90;;;;;;5048822;28;20038;-75
2022/04/27 11:42:01;;;;;;;2.38;1.23;;;14.70;99.90;;;;;;5039601;28;20040;-73
2022/04/27 11:44:28;;;;;;;2.40;1.40;;;14.50;99.90;;;;;;5039384;28;20040;-73
2022/04/27 11:46:55;;;;;;;4.35;1.77;;;14.50;99.90;;;;;;5040579;28;20036;-72
2022/04/27 11:49:23;;;;;;;3.42;1.40;;;14.50;99.90;;;;;;5040664;28;20028;-73
2022/04/27 11:51:49;;;;;;;4.65;1.65;;;14.50;99.90;;;;;;5041619;28;20033;-73
2022/04/27 11:54:44;;;;;;;5.35;1.30;;;14.80;99.90;;;;;;5038701;28;20088;-74
2022/04/27 11:57:13;;;;;;;2.08;1.38;;;15.20;99.90;;;;;;5037357;28;20075;-74
2022/04/27 11:59:44;;;;;;;;;;;15.70;99.90;;;;;;5036953;28;20156;-74
2022/04/27 12:02:12;;;;;;;4.20;1.50;;;16.10;99.90;;;;;;5040229;28;19913;-75
2022/04/27 12:04:38;;;;;;;5.53;1.27;;;16.50;99.90;;;;;;5040194;28;20021;-75
2022/04/27 12:07:21;;;;;;;2.20;0.90;;;16.70;99.90;;;;;;5042318;28;20120;-74
2022/04/27 12:10:10;;;;;;;4.07;1.70;;;17.00;99.90;;;;;;5040891;28;20079;-74
2022/04/27 12:12:39;;;;;;;3.15;1.50;;;17.20;99.90;;;;;;5053005;28;20030;-74
2022/04/27 12:15:11;;;;;;;5.15;1.60;;;17.50;99.90;;;;;;5041364;28;20025;-72
2022/04/27 12:17:57;;;;;;;2.78;1.83;;;17.80;99.10;;;;;;5039848;28;20048;-74
2022/04/27 12:20:37;;;;;;;1.40;1.30;;;17.90;99.90;;;;;;5039922;28;20443;-74
2022/04/27 12:23:10;;;;;;;2.80;1.25;;;18.20;99.90;;;;;;5041190;28;20089;-74
2022/04/27 12:25:45;;;;;;;2.13;1.30;;;18.30;99.90;;;;;;5045237;28;20021;-75
2022/04/27 12:28:13;;;;;;;9.82;1.88;;;18.50;99.90;;;;;;5043447;28;20033;-73
2022/04/27 12:30:51;;;;;;;5.35;1.70;;;18.50;99.70;;;;;;5051825;28;20527;-74
2022/04/27 12:33:19;;;;;;;2.42;1.13;;;18.60;97.70;;;;;;5044094;28;20090;-73
2022/04/27 12:38:32;;;;;;;4.90;1.88;;;18.40;98.00;;;;;;5044621;28;20048;-72
2022/04/27 12:40:59;;;;;;;6.80;1.85;;;18.80;98.20;;;;;;5043882;28;20068;-73
2022/04/27 12:43:25;;;;;;;2.50;0.95;;;18.60;98.70;;;;;;5044262;28;20116;-73
2022/04/27 12:46:11;;;;;;;2.75;1.30;;;18.20;98.90;;;;;;5043501;28;20017;-73
2022/04/27 12:48:39;;;;;;;2.55;1.55;;;17.80;98.30;;;;;;5051769;28;20033;-73
2022/04/27 12:51:08;;;;;;;2.83;1.55;;;17.40;99.00;;;;;;5043976;28;20028;-73
2022/04/27 12:53:35;;;;;;;11.57;2.00;;;17.00;98.10;;;;;;5044789;28;20053;-72
2022/04/27 12:56:08;;;;;;;1.90;1.27;;;16.70;98.20;;;;;;5043523;28;20037;-74
2022/04/27 12:58:39;;;;;;;3.35;1.65;;;16.60;98.40;;;;;;5044678;28;20106;-74
2022/04/27 13:01:05;;;;;;;2.10;1.30;;;16.50;98.70;;;;;;5044575;28;20013;-75
2022/04/27 13:03:31;;;;;;;6.40;1.75;;;16.30;98.70;;;;;;5044852;28;20433;-74
2022/04/27 13:05:57;;;;;;;4.70;1.55;;;16.30;99.30;;;;;;5043175;28;20056;-74
2022/04/27 13:08:23;;;;;;;2.20;1.00;;;16.20;99.30;;;;;;5041500;28;20034;-73
2022/04/27 13:13:34;;;;;;;3.13;1.75;;;15.90;99.10;;;;;;5042745;28;20068;-74
2022/04/27 13:16:00;;;;;;;2.65;1.27;;;15.80;99.90;;;;;;5043447;28;20025;-74
2022/04/27 13:18:26;;;;;;;4.75;2.10;;;15.80;99.90;;;;;;5041999;28;20038;-74
2022/04/27 13:20:52;;;;;;;4.35;1.85;;;15.90;99.90;;;;;;5043179;28;20025;-76
2022/04/27 13:23:19;;;;;;;2.95;1.67;;;16.20;99.90;;;;;;5041136;28;20033;-72